createdAt,value
2018-02-17T00:01:38.726Z,12.23
2018-02-17T00:04:07.506Z,12.07
2018-02-17T00:06:35.795Z,11.17
2018-02-17T00:09:04.072Z,10.20
2018-02-17T00:11:32.350Z,8.83
2018-02-17T00:14:00.611Z,9.27
2018-02-17T00:16:28.899Z,8.03
2018-02-17T00:18:57.167Z,9.00
2018-02-17T00:21:25.440Z,7.97
2018-02-17T00:23:53.722Z,8.43
2018-02-17T00:26:22.022Z,13.13
2018-02-17T00:28:50.290Z,10.43
2018-02-17T00:31:18.599Z,13.73
2018-02-17T00:33:47.639Z,11.80
2018-02-17T00:36:15.913Z,9.77
2018-02-17T00:38:45.397Z,11.90
2018-02-17T00:41:13.734Z,12.37
2018-02-17T00:43:42.006Z,11.73
2018-02-17T00:46:11.047Z,10.43
2018-02-17T00:48:40.983Z,8.80
2018-02-17T00:51:09.278Z,12.70
2018-02-17T00:53:37.539Z,8.00
2018-02-17T00:56:05.812Z,10.17
2018-02-17T00:58:34.082Z,9.30
2018-02-17T01:01:02.363Z,10.43
2018-02-17T01:03:30.618Z,7.70
2018-02-17T01:05:59.642Z,6.33
2018-02-17T01:08:27.914Z,8.43
2018-02-17T01:10:56.202Z,11.50
2018-02-17T01:13:25.716Z,7.27
2018-02-17T01:15:53.969Z,9.30
2018-02-17T01:18:22.215Z,6.90
2018-02-17T01:20:51.259Z,8.95
2018-02-17T01:23:19.515Z,8.67
2018-02-17T01:25:47.786Z,8.13
2018-02-17T01:28:16.050Z,8.23
2018-02-17T01:30:45.080Z,5.57
2018-02-17T01:33:13.343Z,6.70
2018-02-17T01:35:41.609Z,10.33
2018-02-17T01:38:09.879Z,9.47
2018-02-17T01:40:38.940Z,11.60
2018-02-17T01:43:07.205Z,5.47
2018-02-17T01:45:35.480Z,11.12
2018-02-17T01:48:04.515Z,5.90
2018-02-17T01:50:33.563Z,8.73
2018-02-17T01:53:01.870Z,8.03
2018-02-17T01:55:30.119Z,9.73
2018-02-17T01:57:58.399Z,5.43
2018-02-17T02:00:26.679Z,16.80
2018-02-17T02:02:54.955Z,13.60
2018-02-17T02:05:23.215Z,5.73
2018-02-17T02:07:51.479Z,13.23
2018-02-17T02:10:19.753Z,7.57
2018-02-17T02:12:48.010Z,6.13
2018-02-17T02:15:16.283Z,8.17
2018-02-17T02:17:44.542Z,6.73
2018-02-17T02:20:13.574Z,11.63
2018-02-17T02:22:41.851Z,9.03
2018-02-17T02:25:10.115Z,9.80
2018-02-17T02:27:38.378Z,9.40
2018-02-17T02:30:07.406Z,14.47
2018-02-17T02:32:36.680Z,13.33
2018-02-17T02:35:04.943Z,9.90
2018-02-17T02:37:33.984Z,12.50
2018-02-17T02:40:03.036Z,8.30
2018-02-17T02:42:31.328Z,10.80
2018-02-17T02:44:59.611Z,12.57
2018-02-17T02:47:27.905Z,10.10
2018-02-17T02:49:56.179Z,8.30
2018-02-17T02:52:24.541Z,8.23
2018-02-17T02:54:52.797Z,8.30
2018-02-17T02:57:21.840Z,9.40
2018-02-17T02:59:50.110Z,14.33
2018-02-17T03:02:18.377Z,5.33
2018-02-17T03:04:46.667Z,6.90
2018-02-17T03:07:14.926Z,8.50
2018-02-17T03:09:43.183Z,8.10
2018-02-17T03:12:11.465Z,7.03
2018-02-17T03:14:39.725Z,8.20
2018-02-17T03:17:08.819Z,9.77
2018-02-17T03:19:37.838Z,12.70
2018-02-17T03:22:06.126Z,10.33
2018-02-17T03:24:34.430Z,12.23
2018-02-17T03:27:02.718Z,7.60
2018-02-17T03:29:30.988Z,8.10
2018-02-17T03:31:59.242Z,6.67
2018-02-17T03:34:27.511Z,15.40
2018-02-17T03:36:55.794Z,11.47
2018-02-17T03:39:24.063Z,8.40
2018-02-17T03:41:52.336Z,6.20
2018-02-17T03:44:20.595Z,6.47
2018-02-17T03:46:48.904Z,10.13
2018-02-17T03:49:17.160Z,7.77
2018-02-17T03:51:45.415Z,8.63
2018-02-17T03:54:13.899Z,9.03
2018-02-17T03:56:42.160Z,11.67
2018-02-17T03:59:10.439Z,9.87
2018-02-17T04:01:38.695Z,8.47
2018-02-17T04:04:07.729Z,12.57
2018-02-17T04:06:36.031Z,8.07
2018-02-17T04:09:04.287Z,7.37
2018-02-17T04:11:33.366Z,6.37
2018-02-17T04:14:01.630Z,5.67
2018-02-17T04:16:29.885Z,9.47
2018-02-17T04:18:58.919Z,10.40
2018-02-17T04:21:27.183Z,12.43
2018-02-17T04:23:55.455Z,11.20
2018-02-17T04:26:23.731Z,11.70
2018-02-17T04:28:51.994Z,12.03
2018-02-17T04:31:20.283Z,10.50
2018-02-17T04:33:48.564Z,11.50
2018-02-17T04:36:16.833Z,5.97
2018-02-17T04:38:45.090Z,4.80
2018-02-17T04:41:19.032Z,12.60
2018-02-17T04:43:59.038Z,14.30
2018-02-17T04:46:34.212Z,10.77
2018-02-17T04:49:05.512Z,9.63
2018-02-17T04:51:49.421Z,8.93
2018-02-17T04:54:23.138Z,10.07
2018-02-17T04:56:55.905Z,11.13
2018-02-17T05:02:51.560Z,8.97
2018-02-17T05:08:26.712Z,9.90
2018-02-17T05:10:54.968Z,7.30
2018-02-17T05:13:23.231Z,10.93
2018-02-17T05:16:05.376Z,8.05
2018-02-17T05:18:48.531Z,9.63
2018-02-17T05:21:18.721Z,12.07
2018-02-17T05:23:47.045Z,13.90
2018-02-17T05:26:15.642Z,10.80
2018-02-17T05:28:45.750Z,13.13
2018-02-17T05:31:15.958Z,14.23
2018-02-17T05:33:49.881Z,16.43
2018-02-17T05:36:20.579Z,14.90
2018-02-17T05:39:07.421Z,11.10
2018-02-17T05:41:50.562Z,15.17
2018-02-17T05:47:41.806Z,12.07
2018-02-17T05:50:10.075Z,13.33
2018-02-17T05:52:38.354Z,17.80
2018-02-17T05:55:06.619Z,8.90
2018-02-17T05:57:34.899Z,10.90
2018-02-17T06:00:03.174Z,10.60
2018-02-17T06:02:31.462Z,8.47
2018-02-17T06:04:59.779Z,9.00
2018-02-17T06:07:28.043Z,11.63
2018-02-17T06:09:57.067Z,7.03
2018-02-17T06:12:25.336Z,12.00
2018-02-17T06:14:53.589Z,10.10
2018-02-17T06:17:21.902Z,10.33
2018-02-17T06:19:50.151Z,11.20
2018-02-17T06:22:18.427Z,9.03
2018-02-17T06:24:46.683Z,8.73
2018-02-17T06:27:15.714Z,10.23
2018-02-17T06:29:43.991Z,8.27
2018-02-17T06:32:12.255Z,11.00
2018-02-17T06:34:40.530Z,12.07
2018-02-17T06:37:08.792Z,11.03
2018-02-17T06:39:37.815Z,11.37
2018-02-17T06:42:06.101Z,12.53
2018-02-17T06:44:34.355Z,15.77
2018-02-17T06:47:02.662Z,12.93
2018-02-17T06:49:30.922Z,21.20
2018-02-17T06:51:59.185Z,17.67
2018-02-17T06:54:27.461Z,16.10
2018-02-17T06:56:55.731Z,21.33
2018-02-17T06:59:24.912Z,20.67
2018-02-17T07:01:53.940Z,13.37
2018-02-17T07:04:22.207Z,6.73
2018-02-17T07:06:50.475Z,9.60
2018-02-17T07:09:18.741Z,12.80
2018-02-17T07:11:47.603Z,9.10
2018-02-17T07:14:15.868Z,14.20
2018-02-17T07:16:44.126Z,13.33
2018-02-17T07:19:12.407Z,17.13
2018-02-17T07:21:40.671Z,12.37
2018-02-17T07:24:08.950Z,10.33
2018-02-17T07:26:37.211Z,12.40
2018-02-17T07:29:05.504Z,11.90
2018-02-17T07:31:33.803Z,17.67
2018-02-17T07:34:02.066Z,9.90
2018-02-17T07:36:30.339Z,10.27
2018-02-17T07:38:58.604Z,10.10
2018-02-17T07:41:26.883Z,12.93
2018-02-17T07:43:55.945Z,15.97
2018-02-17T07:46:24.208Z,13.00
2018-02-17T07:48:52.515Z,12.23
2018-02-17T07:51:20.775Z,18.13
2018-02-17T07:53:49.059Z,9.40
2018-02-17T07:56:17.328Z,11.50
2018-02-17T07:58:45.592Z,10.77
2018-02-17T08:01:13.863Z,14.17
2018-02-17T08:03:42.128Z,11.53
2018-02-17T08:06:11.147Z,15.47
2018-02-17T08:08:39.428Z,12.30
2018-02-17T08:11:07.687Z,9.87
2018-02-17T08:13:35.975Z,10.93
2018-02-17T08:16:04.219Z,7.90
2018-02-17T08:18:33.244Z,10.47
2018-02-17T08:21:01.503Z,15.45
2018-02-17T08:23:29.824Z,9.67
2018-02-17T08:25:58.068Z,10.43
2018-02-17T08:28:26.892Z,12.00
2018-02-17T08:30:55.957Z,10.70
2018-02-17T08:33:24.216Z,8.40
2018-02-17T08:35:52.466Z,10.63
2018-02-17T08:38:21.492Z,11.63
2018-02-17T08:40:49.737Z,11.90
2018-02-17T08:43:18.755Z,13.17
2018-02-17T08:45:47.149Z,15.40
2018-02-17T08:48:15.421Z,16.00
2018-02-17T08:50:43.678Z,15.87
2018-02-17T08:53:11.966Z,16.20
2018-02-17T08:55:40.302Z,9.90
2018-02-17T08:58:08.566Z,10.17
2018-02-17T09:00:36.817Z,12.70
2018-02-17T09:03:05.087Z,10.50
2018-02-17T09:05:33.356Z,10.97
2018-02-17T09:08:01.590Z,9.50
2018-02-17T09:13:32.218Z,10.50
2018-02-17T09:16:00.490Z,12.35
2018-02-17T09:18:28.738Z,13.77
2018-02-17T09:20:56.995Z,13.97
2018-02-17T09:23:25.259Z,11.40
2018-02-17T09:25:54.303Z,9.50
2018-02-17T09:28:22.571Z,11.60
2018-02-17T09:30:50.815Z,13.77
2018-02-17T09:33:19.062Z,19.00
2018-02-17T09:35:47.328Z,14.90
2018-02-17T09:38:15.575Z,14.37
2018-02-17T09:40:43.855Z,14.00
2018-02-17T09:43:12.091Z,15.97
2018-02-17T09:45:40.343Z,14.87
2018-02-17T09:48:09.376Z,14.47
2018-02-17T09:50:37.631Z,16.33
2018-02-17T09:53:06.663Z,13.43
2018-02-17T09:55:34.951Z,11.67
2018-02-17T09:58:03.206Z,14.93
2018-02-17T10:00:31.496Z,14.33
2018-02-17T10:03:00.530Z,13.07
2018-02-17T10:05:29.582Z,14.97
2018-02-17T10:07:57.833Z,17.33
2018-02-17T10:10:26.147Z,14.13
2018-02-17T10:12:54.393Z,15.47
2018-02-17T10:15:22.675Z,14.63
2018-02-17T10:17:50.923Z,16.43
2018-02-17T10:20:19.175Z,12.70
2018-02-17T10:22:48.206Z,13.87
2018-02-17T10:25:16.531Z,17.12
2018-02-17T10:27:44.784Z,19.30
2018-02-17T10:30:13.037Z,14.67
2018-02-17T10:32:41.314Z,14.13
2018-02-17T10:35:09.578Z,16.80
2018-02-17T10:37:37.838Z,15.33
2018-02-17T10:40:06.856Z,15.33
2018-02-17T10:42:35.102Z,13.03
2018-02-17T10:45:04.147Z,11.38
2018-02-17T10:47:32.392Z,14.00
2018-02-17T10:50:00.659Z,18.60
2018-02-17T10:52:28.902Z,11.83
2018-02-17T10:54:57.154Z,13.50
2018-02-17T10:57:25.412Z,10.87
2018-02-17T10:59:53.675Z,15.33
2018-02-17T11:02:21.946Z,14.90
2018-02-17T11:04:50.216Z,16.70
2018-02-17T11:07:18.462Z,16.40
2018-02-17T11:09:46.710Z,14.20
2018-02-17T11:12:14.977Z,13.47
2018-02-17T11:14:43.220Z,15.97
2018-02-17T11:17:11.483Z,20.47
2018-02-17T11:19:40.509Z,12.13
2018-02-17T11:22:08.795Z,12.90
2018-02-17T11:24:37.071Z,13.70
2018-02-17T11:27:05.335Z,11.30
2018-02-17T11:29:33.601Z,10.53
2018-02-17T11:32:01.855Z,11.57
2018-02-17T11:34:30.884Z,15.40
2018-02-17T11:36:59.126Z,11.93
2018-02-17T11:39:28.144Z,15.80
2018-02-17T11:41:56.416Z,13.00
2018-02-17T11:44:24.675Z,14.90
2018-02-17T11:46:52.942Z,11.47
2018-02-17T11:49:21.961Z,13.73
2018-02-17T11:51:50.216Z,10.73
2018-02-17T11:54:18.471Z,13.30
2018-02-17T11:56:46.770Z,11.57
2018-02-17T11:59:15.787Z,12.13
2018-02-17T12:01:44.051Z,12.43
2018-02-17T12:04:12.317Z,13.33
2018-02-17T12:06:40.567Z,10.90
2018-02-17T12:09:09.593Z,13.10
2018-02-17T12:11:37.875Z,9.10
2018-02-17T12:14:06.119Z,12.43
2018-02-17T12:16:35.174Z,13.73
2018-02-17T12:19:03.422Z,16.50
2018-02-17T12:21:31.693Z,12.17
2018-02-17T12:23:59.940Z,14.90
2018-02-17T12:26:29.069Z,10.10
2018-02-17T12:28:57.319Z,10.40
2018-02-17T12:31:26.350Z,12.10
2018-02-17T12:33:54.592Z,8.80
2018-02-17T12:36:23.639Z,9.27
2018-02-17T12:38:51.911Z,13.73
2018-02-17T12:41:20.258Z,13.13
2018-02-17T12:43:48.508Z,10.60
2018-02-17T12:46:17.594Z,9.00
2018-02-17T12:48:46.679Z,9.27
2018-02-17T12:51:15.003Z,7.50
2018-02-17T12:53:43.259Z,14.43
2018-02-17T12:56:11.511Z,12.05
2018-02-17T12:58:39.790Z,12.50
2018-02-17T13:01:08.055Z,9.63
2018-02-17T13:03:36.303Z,12.37
2018-02-17T13:06:04.586Z,8.63
2018-02-17T13:08:32.839Z,10.50
2018-02-17T13:11:01.106Z,13.20
2018-02-17T13:13:29.432Z,9.60
2018-02-17T13:15:57.652Z,11.77
2018-02-17T13:18:25.923Z,11.30
2018-02-17T13:20:54.182Z,10.93
2018-02-17T13:23:24.034Z,15.13
2018-02-17T13:25:52.308Z,14.10
2018-02-17T13:28:28.464Z,9.23
2018-02-17T13:30:56.715Z,10.77
2018-02-17T13:33:25.856Z,13.20
2018-02-17T13:35:54.133Z,9.70
2018-02-17T13:38:22.379Z,9.53
2018-02-17T13:40:50.760Z,11.40
2018-02-17T13:43:19.045Z,10.13
2018-02-17T13:45:47.299Z,9.93
2018-02-17T13:48:15.693Z,7.33
2018-02-17T13:50:43.969Z,13.77
2018-02-17T13:53:12.288Z,11.47
2018-02-17T13:55:40.592Z,12.63
2018-02-17T13:58:09.804Z,10.33
2018-02-17T14:00:37.992Z,10.97
2018-02-17T14:03:06.254Z,9.20
2018-02-17T14:05:34.530Z,9.67
2018-02-17T14:08:02.782Z,9.53
2018-02-17T14:10:31.813Z,9.60
2018-02-17T14:13:00.140Z,14.80
2018-02-17T14:15:28.542Z,9.77
2018-02-17T14:17:57.807Z,13.63
2018-02-17T14:20:27.784Z,8.83
2018-02-17T14:22:56.143Z,12.97
2018-02-17T14:25:24.524Z,10.23
2018-02-17T14:27:52.857Z,11.87
2018-02-17T14:30:21.225Z,9.23
2018-02-17T14:32:49.656Z,16.87
2018-02-17T14:35:18.035Z,14.50
2018-02-17T14:37:47.560Z,8.43
2018-02-17T14:40:16.220Z,11.03
2018-02-17T14:42:44.632Z,12.40
2018-02-17T14:45:12.922Z,13.30
2018-02-17T14:47:41.235Z,18.03
2018-02-17T14:50:10.295Z,15.90
2018-02-17T14:52:38.586Z,14.73
2018-02-17T14:55:06.855Z,14.13
2018-02-17T14:57:35.123Z,16.63
2018-02-17T15:00:03.474Z,11.70
2018-02-17T15:02:31.776Z,14.00
2018-02-17T15:05:00.116Z,12.57
2018-02-17T15:07:28.399Z,13.83
2018-02-17T15:09:56.677Z,17.40
2018-02-17T15:12:24.957Z,15.30
2018-02-17T15:14:53.245Z,20.57
2018-02-17T15:17:21.511Z,13.43
2018-02-17T15:19:49.835Z,16.53
2018-02-17T15:22:18.186Z,13.10
2018-02-17T15:24:46.522Z,13.13
2018-02-17T15:27:14.849Z,20.43
2018-02-17T15:29:43.203Z,16.40
2018-02-17T15:32:11.576Z,17.03
2018-02-17T15:34:39.943Z,17.33
2018-02-17T15:37:08.256Z,16.50
2018-02-17T15:39:36.519Z,25.33
2018-02-17T15:42:04.807Z,16.60
2018-02-17T15:44:33.200Z,16.77
2018-02-17T15:47:01.479Z,13.73
2018-02-17T15:49:29.834Z,11.60
2018-02-17T15:51:58.198Z,15.60
2018-02-17T15:54:26.467Z,16.53
2018-02-17T15:56:54.937Z,19.70
2018-02-17T15:59:23.314Z,20.23
2018-02-17T16:01:52.337Z,15.50
2018-02-17T16:04:20.651Z,23.30
2018-02-17T16:06:49.732Z,17.20
2018-02-17T16:09:19.772Z,19.30
2018-02-17T16:11:48.186Z,20.47
2018-02-17T16:14:17.760Z,22.53
2018-02-17T16:16:47.106Z,22.07
2018-02-17T16:19:15.532Z,20.10
2018-02-17T16:21:44.591Z,22.03
2018-02-17T16:24:12.846Z,19.67
2018-02-17T16:26:41.246Z,20.27
2018-02-17T16:29:09.498Z,22.07
2018-02-17T16:31:37.774Z,23.40
2018-02-17T16:34:06.081Z,19.90
2018-02-17T16:36:35.233Z,23.73
2018-02-17T16:39:03.635Z,20.53
2018-02-17T16:41:31.927Z,19.43
2018-02-17T16:44:00.195Z,19.53
2018-02-17T16:46:28.528Z,31.08
2018-02-17T16:48:56.800Z,71.67
2018-02-17T16:51:25.944Z,67.03
2018-02-17T16:53:54.218Z,42.13
2018-02-17T16:56:22.626Z,28.35
2018-02-17T16:58:50.927Z,23.37
2018-02-17T17:01:21.078Z,22.83
2018-02-17T17:03:49.968Z,19.80
2018-02-17T17:06:18.551Z,20.10
2018-02-17T17:08:47.017Z,21.77
2018-02-17T17:11:15.851Z,21.40
2018-02-17T17:13:45.437Z,20.73
2018-02-17T17:16:13.989Z,31.33
2018-02-17T17:18:42.754Z,21.40
2018-02-17T17:21:11.351Z,26.13
2018-02-17T17:23:40.173Z,24.73
2018-02-17T17:26:09.171Z,27.75
2018-02-17T17:28:38.544Z,23.90
2018-02-17T17:31:07.249Z,23.10
2018-02-17T17:33:35.892Z,23.80
2018-02-17T17:36:04.330Z,31.77
2018-02-17T17:38:33.103Z,19.17
2018-02-17T17:41:01.591Z,23.20
2018-02-17T17:43:29.932Z,23.80
2018-02-17T17:45:58.818Z,23.93
2018-02-17T17:48:27.735Z,23.17
2018-02-17T17:50:56.632Z,22.87
2018-02-17T17:53:26.239Z,35.33
2018-02-17T17:55:56.185Z,29.43
2018-02-17T17:58:25.469Z,27.50
2018-02-17T18:00:56.253Z,25.60
2018-02-17T18:03:25.472Z,22.43
2018-02-17T18:05:55.363Z,22.33
2018-02-17T18:08:24.188Z,26.77
2018-02-17T18:10:54.573Z,25.30
2018-02-17T18:13:24.445Z,23.90
2018-02-17T18:15:54.331Z,31.17
2018-02-17T18:18:25.178Z,24.47
2018-02-17T18:20:54.966Z,21.02
2018-02-17T18:23:24.194Z,22.50
2018-02-17T18:25:54.113Z,21.40
2018-02-17T18:28:24.059Z,28.50
2018-02-17T18:30:54.082Z,20.50
2018-02-17T18:33:24.055Z,23.37
2018-02-17T18:35:53.466Z,19.60
2018-02-17T18:38:22.841Z,22.50
2018-02-17T18:40:52.996Z,26.53
2018-02-17T18:43:22.266Z,28.20
2018-02-17T18:45:52.396Z,24.70
2018-02-17T18:48:21.735Z,24.87
2018-02-17T18:50:51.159Z,24.60
2018-02-17T18:53:20.503Z,27.73
2018-02-17T18:55:49.785Z,29.40
2018-02-17T18:58:19.098Z,29.53
2018-02-17T19:00:48.378Z,22.13
2018-02-17T19:03:17.807Z,23.03
2018-02-17T19:05:48.122Z,24.87
2018-02-17T19:08:18.331Z,25.67
2018-02-17T19:10:47.670Z,20.57
2018-02-17T19:13:16.978Z,23.77
2018-02-17T19:15:46.965Z,23.07
2018-02-17T19:18:16.755Z,27.27
2018-02-17T19:20:47.349Z,20.60
2018-02-17T19:23:17.214Z,21.60
2018-02-17T19:25:47.460Z,32.90
2018-02-17T19:28:16.997Z,25.67
2018-02-17T19:30:47.858Z,20.63
2018-02-17T19:33:18.475Z,20.37
2018-02-17T19:35:49.228Z,17.97
2018-02-17T19:38:20.423Z,21.60
2018-02-17T19:40:50.436Z,19.90
2018-02-17T19:43:20.292Z,23.97
2018-02-17T19:45:50.446Z,24.27
2018-02-17T19:48:19.739Z,26.13
2018-02-17T19:50:50.478Z,23.40
2018-02-17T19:53:19.872Z,20.47
2018-02-17T19:55:50.819Z,18.50
2018-02-17T19:58:20.212Z,24.60
2018-02-17T20:00:51.058Z,23.25
2018-02-17T20:03:20.392Z,23.23
2018-02-17T20:05:49.677Z,22.40
2018-02-17T20:08:19.662Z,21.13
2018-02-17T20:10:50.365Z,26.57
2018-02-17T20:13:19.809Z,25.37
2018-02-17T20:15:49.915Z,26.47
2018-02-17T20:18:20.335Z,23.50
2018-02-17T20:20:50.393Z,24.00
2018-02-17T20:23:20.319Z,20.90
2018-02-17T20:25:50.299Z,21.07
2018-02-17T20:28:21.072Z,20.87
2018-02-17T20:30:51.924Z,22.43
2018-02-17T20:33:21.838Z,23.03
2018-02-17T20:35:52.467Z,22.57
2018-02-17T20:38:22.410Z,23.10
2018-02-17T20:40:53.197Z,27.97
2018-02-17T20:43:22.620Z,25.00
2018-02-17T20:45:52.213Z,25.20
2018-02-17T20:48:22.182Z,29.17
2018-02-17T20:50:52.919Z,21.30
2018-02-17T20:53:22.951Z,25.40
2018-02-17T20:55:52.717Z,24.10
2018-02-17T20:58:22.150Z,25.07
2018-02-17T21:00:52.474Z,22.85
2018-02-17T21:03:21.978Z,24.50
2018-02-17T21:05:53.201Z,30.10
2018-02-17T21:08:23.446Z,22.43
2018-02-17T21:10:53.523Z,28.40
2018-02-17T21:13:23.071Z,24.13
2018-02-17T21:15:53.930Z,31.35
2018-02-17T21:18:24.165Z,29.60
2018-02-17T21:20:54.238Z,29.35
2018-02-17T21:23:24.427Z,27.70
2018-02-17T21:25:54.279Z,32.50
2018-02-17T21:28:24.449Z,33.07
2018-02-17T21:30:53.750Z,33.97
2018-02-17T21:33:23.624Z,37.20
2018-02-17T21:35:52.893Z,34.63
2018-02-17T21:38:22.861Z,32.70
2018-02-17T21:40:52.864Z,28.30
2018-02-17T21:43:22.806Z,36.20
2018-02-17T21:45:52.264Z,32.73
2018-02-17T21:48:21.573Z,27.40
2018-02-17T21:50:51.459Z,27.60
2018-02-17T21:53:22.214Z,36.63
2018-02-17T21:55:52.875Z,36.58
2018-02-17T21:58:23.588Z,34.00
2018-02-17T22:00:53.770Z,44.53
2018-02-17T22:03:23.706Z,37.90
2018-02-17T22:05:54.771Z,32.93
2018-02-17T22:08:24.577Z,36.43
2018-02-17T22:10:54.597Z,37.57
2018-02-17T22:13:24.468Z,31.23
2018-02-17T22:15:54.446Z,34.10
2018-02-17T22:18:24.334Z,28.33
2018-02-17T22:20:55.033Z,28.63
2018-02-17T22:23:25.495Z,34.20
2018-02-17T22:25:55.555Z,34.13
2018-02-17T22:28:25.314Z,21.27
2018-02-17T22:30:56.007Z,31.33
2018-02-17T22:33:25.825Z,20.80
2018-02-17T22:35:55.722Z,21.00
2018-02-17T22:38:25.645Z,19.30
2018-02-17T22:40:55.510Z,23.10
2018-02-17T22:43:25.150Z,18.40
2018-02-17T22:45:55.126Z,27.47
2018-02-17T22:48:25.294Z,31.83
2018-02-17T22:50:54.684Z,24.43
2018-02-17T22:53:24.528Z,23.17
2018-02-17T22:55:54.489Z,26.50
2018-02-17T22:58:24.420Z,25.87
2018-02-17T23:00:53.788Z,30.43
2018-02-17T23:03:23.600Z,27.00
2018-02-17T23:05:52.789Z,29.90
2018-02-17T23:08:21.319Z,26.03
2018-02-17T23:10:49.696Z,22.30
2018-02-17T23:13:18.154Z,21.07
2018-02-17T23:15:46.415Z,20.63
2018-02-17T23:18:14.709Z,19.57
2018-02-17T23:20:42.971Z,24.43
2018-02-17T23:23:11.256Z,25.33
2018-02-17T23:25:39.538Z,30.10
2018-02-17T23:28:07.811Z,30.53
2018-02-17T23:30:36.172Z,25.60
2018-02-17T23:33:04.446Z,24.03
2018-02-17T23:35:32.808Z,29.43
2018-02-17T23:38:01.138Z,28.67
2018-02-17T23:40:29.407Z,26.23
2018-02-17T23:42:57.687Z,24.57
2018-02-17T23:45:26.042Z,21.20
2018-02-17T23:47:54.300Z,26.47
2018-02-17T23:50:22.559Z,27.10
2018-02-17T23:52:51.054Z,24.00
2018-02-17T23:55:19.338Z,25.40
2018-02-17T23:57:47.612Z,22.40
